createdAt,value
2022-10-19T00:01:10.100Z,8.61
2022-10-19T00:04:10.107Z,8.62
2022-10-19T00:07:10.134Z,8.61
2022-10-19T00:10:10.113Z,8.63
2022-10-19T00:13:10.121Z,8.62
2022-10-19T00:16:11.268Z,8.63
2022-10-19T00:19:10.127Z,8.63
2022-10-19T00:22:11.605Z,8.64
2022-10-19T00:25:10.147Z,8.64
2022-10-19T00:28:10.127Z,8.64
2022-10-19T00:31:10.138Z,8.63
2022-10-19T00:34:10.140Z,8.63
2022-10-19T00:37:10.140Z,8.61
2022-10-19T00:40:10.143Z,8.66
2022-10-19T00:43:10.171Z,8.65
2022-10-19T00:46:10.162Z,8.64
2022-10-19T00:49:10.783Z,8.63
2022-10-19T00:52:10.159Z,8.62
2022-10-19T00:55:10.163Z,8.62
2022-10-19T00:58:10.166Z,8.61
2022-10-19T01:01:10.256Z,8.6
2022-10-19T01:04:10.175Z,8.6
2022-10-19T01:07:10.175Z,8.6
2022-10-19T01:10:10.178Z,8.61
2022-10-19T01:13:10.185Z,8.55
2022-10-19T01:16:10.187Z,8.55
2022-10-19T01:19:10.220Z,8.56
2022-10-19T01:22:10.195Z,8.56
2022-10-19T01:25:10.200Z,8.56
2022-10-19T01:28:10.201Z,8.52
2022-10-19T01:31:10.200Z,8.52
2022-10-19T01:34:10.199Z,8.54
2022-10-19T01:37:10.226Z,8.55
2022-10-19T01:40:10.200Z,8.52
2022-10-19T01:43:10.207Z,8.53
2022-10-19T01:46:10.207Z,8.55
2022-10-19T01:49:10.205Z,8.56
2022-10-19T01:52:10.212Z,8.58
2022-10-19T01:55:10.240Z,8.57
2022-10-19T01:58:10.211Z,8.58
2022-10-19T02:04:10.224Z,8.56
2022-10-19T02:07:10.227Z,8.61
2022-10-19T02:10:10.299Z,8.61
2022-10-19T02:13:10.257Z,8.62
2022-10-19T02:16:10.239Z,8.62
2022-10-19T02:19:10.242Z,8.58
2022-10-19T02:22:10.252Z,8.65
2022-10-19T02:25:10.255Z,8.66
2022-10-19T02:28:10.267Z,8.66
2022-10-19T02:31:10.306Z,8.67
2022-10-19T02:34:10.273Z,8.68
2022-10-19T02:37:10.278Z,8.69
2022-10-19T02:40:10.282Z,8.7
2022-10-19T02:43:10.286Z,8.72
2022-10-19T02:46:10.296Z,8.72
2022-10-19T02:49:10.322Z,8.72
2022-10-19T02:52:10.302Z,8.72
2022-10-19T02:55:10.308Z,8.73
2022-10-19T02:58:10.313Z,8.73
2022-10-19T03:01:10.372Z,8.69
2022-10-19T03:04:10.323Z,8.7
2022-10-19T03:07:10.352Z,8.7
2022-10-19T03:10:10.333Z,8.71
2022-10-19T03:13:10.342Z,8.72
2022-10-19T03:16:10.350Z,8.74
2022-10-19T03:19:10.348Z,8.74
2022-10-19T03:22:10.353Z,8.74
2022-10-19T03:25:10.382Z,8.76
2022-10-19T03:28:10.365Z,8.78
2022-10-19T03:31:10.371Z,8.78
2022-10-19T03:34:10.376Z,8.8
2022-10-19T03:37:10.378Z,8.73
2022-10-19T03:40:10.389Z,8.74
2022-10-19T03:43:10.413Z,8.73
2022-10-19T03:46:10.396Z,8.73
2022-10-19T03:49:10.399Z,8.72
2022-10-19T03:52:10.424Z,8.72
2022-10-19T03:55:10.410Z,8.72
2022-10-19T03:58:10.422Z,8.72
2022-10-19T04:01:10.510Z,8.72
2022-10-19T04:04:10.433Z,8.71
2022-10-19T04:07:10.439Z,8.71
2022-10-19T04:10:10.443Z,8.7
2022-10-19T04:13:10.453Z,8.7
2022-10-19T04:16:10.453Z,8.66
2022-10-19T04:19:10.482Z,8.62
2022-10-19T04:22:10.467Z,8.65
2022-10-19T04:25:10.475Z,8.67
2022-10-19T04:28:10.476Z,8.69
2022-10-19T04:31:10.483Z,8.7
2022-10-19T04:34:10.639Z,8.69
2022-10-19T04:37:10.521Z,8.7
2022-10-19T04:40:14.183Z,8.7
2022-10-19T04:43:10.511Z,8.71
2022-10-19T04:46:10.516Z,8.72
2022-10-19T04:49:10.575Z,8.67
2022-10-19T04:52:10.529Z,8.68
2022-10-19T04:55:10.562Z,8.7
2022-10-19T04:58:10.545Z,8.7
2022-10-19T05:01:10.660Z,8.7
2022-10-19T05:04:10.559Z,8.7
2022-10-19T05:07:10.565Z,8.7
2022-10-19T05:10:10.575Z,8.7
2022-10-19T05:13:10.606Z,8.68
2022-10-19T05:16:10.601Z,8.59
2022-10-19T05:19:10.608Z,8.61
2022-10-19T05:22:10.609Z,8.58
2022-10-19T05:25:10.620Z,8.5
2022-10-19T05:28:10.620Z,8.56
2022-10-19T05:31:10.658Z,8.57
2022-10-19T05:34:10.744Z,8.59
2022-10-19T05:37:10.648Z,8.61
2022-10-19T05:40:10.659Z,8.63
2022-10-19T05:43:10.671Z,8.59
2022-10-19T05:46:10.675Z,8.67
2022-10-19T05:49:10.707Z,8.69
2022-10-19T05:52:10.689Z,8.64
2022-10-19T05:55:10.695Z,8.64
2022-10-19T05:58:10.701Z,8.63
2022-10-19T06:01:10.711Z,8.62
2022-10-19T06:04:10.788Z,8.68
2022-10-19T06:07:10.769Z,8.61
2022-10-19T06:10:10.735Z,8.65
2022-10-19T06:13:10.748Z,8.62
2022-10-19T06:16:10.759Z,8.6
2022-10-19T06:19:10.768Z,8.55
2022-10-19T06:22:10.778Z,8.49
2022-10-19T06:25:10.811Z,8.45
2022-10-19T06:28:10.799Z,8.46
2022-10-19T06:31:10.843Z,8.38
2022-10-19T06:34:10.855Z,8.33
2022-10-19T06:37:10.816Z,8.24
2022-10-19T06:40:10.875Z,8.21
2022-10-19T06:43:10.865Z,8.2
2022-10-19T06:46:10.840Z,8.11
2022-10-19T06:49:10.855Z,8.15
2022-10-19T06:52:10.867Z,8.13
2022-10-19T06:55:10.881Z,8.19
2022-10-19T06:58:10.886Z,8.18
2022-10-19T07:01:10.992Z,8.15
2022-10-19T07:04:10.911Z,8.22
2022-10-19T07:07:10.918Z,8.19
2022-10-19T07:10:10.933Z,8.16
2022-10-19T07:13:10.949Z,8.2
2022-10-19T07:16:13.332Z,8.2
2022-10-19T07:19:11.003Z,8.25
2022-10-19T07:22:12.614Z,8.25
2022-10-19T07:25:10.985Z,8.27
2022-10-19T07:28:11.002Z,8.31
2022-10-19T07:31:11.014Z,8.3
2022-10-19T07:34:11.026Z,8.26
2022-10-19T07:37:11.125Z,8.31
2022-10-19T07:40:11.055Z,8.26
2022-10-19T07:43:11.055Z,8.28
2022-10-19T07:46:11.072Z,8.23
2022-10-19T07:49:11.087Z,8.3
2022-10-19T07:52:11.097Z,8.23
2022-10-19T07:55:11.148Z,8.28
2022-10-19T07:58:11.127Z,8.28
2022-10-19T08:01:11.133Z,8.23
2022-10-19T08:04:48.946Z,8.23
2022-10-19T08:07:11.165Z,8.28
2022-10-19T08:10:11.183Z,8.26
2022-10-19T08:13:11.215Z,8.26
2022-10-19T08:16:11.197Z,8.24
2022-10-19T08:19:11.204Z,8.26
2022-10-19T08:22:11.235Z,8.22
2022-10-19T08:25:11.241Z,8.19
2022-10-19T08:28:11.248Z,8.22
2022-10-19T08:31:11.275Z,8.13
2022-10-19T08:34:11.264Z,7.93
2022-10-19T08:37:19.634Z,7.72
2022-10-19T08:40:11.278Z,7.64
2022-10-19T08:43:11.303Z,7.75
2022-10-19T08:46:11.314Z,7.78
2022-10-19T08:49:11.336Z,7.86
2022-10-19T08:52:11.319Z,7.82
2022-10-19T08:55:12.979Z,7.81
2022-10-19T08:58:11.340Z,7.85
2022-10-19T09:01:11.358Z,7.82
2022-10-19T09:04:11.358Z,7.83
2022-10-19T09:07:11.396Z,7.73
2022-10-19T09:10:11.382Z,7.8
2022-10-19T09:13:11.396Z,7.87
2022-10-19T09:16:11.403Z,7.84
2022-10-19T09:19:11.408Z,7.85
2022-10-19T09:22:11.420Z,7.8
2022-10-19T09:25:11.456Z,7.99
2022-10-19T09:28:11.443Z,7.98
2022-10-19T09:31:11.455Z,8.08
2022-10-19T09:34:11.470Z,8.3
2022-10-19T09:37:15.971Z,8.23
2022-10-19T09:40:11.486Z,8.24
2022-10-19T09:43:11.527Z,8.16
2022-10-19T09:46:18.709Z,8.13
2022-10-19T09:49:11.522Z,8.06
2022-10-19T09:52:11.538Z,8.15
2022-10-19T09:55:11.540Z,8.28
2022-10-19T09:58:11.551Z,8.31
2022-10-19T10:01:11.597Z,8.29
2022-10-19T10:04:11.606Z,8.31
2022-10-19T10:07:11.652Z,8.34
2022-10-19T10:10:11.638Z,8.28
2022-10-19T10:13:11.649Z,8.3
2022-10-19T10:16:11.639Z,8.26
2022-10-19T10:19:11.681Z,8.34
2022-10-19T10:22:11.640Z,8.15
2022-10-19T10:25:11.644Z,8.08
2022-10-19T10:28:11.649Z,8.12
2022-10-19T10:31:11.639Z,8.08
2022-10-19T10:34:16.619Z,8.08
2022-10-19T10:37:11.667Z,7.95
2022-10-19T10:40:11.639Z,7.84
2022-10-19T10:43:11.643Z,7.8
2022-10-19T10:46:11.649Z,7.74
2022-10-19T10:49:11.649Z,7.78
2022-10-19T10:52:11.652Z,7.76
2022-10-19T10:55:11.682Z,7.76
2022-10-19T10:58:11.660Z,7.74
2022-10-19T11:01:11.653Z,7.74
2022-10-19T11:04:11.657Z,7.69
2022-10-19T11:07:11.668Z,7.68
2022-10-19T11:10:11.665Z,7.79
2022-10-19T11:13:11.803Z,7.77
2022-10-19T11:16:11.673Z,7.72
2022-10-19T11:19:11.712Z,7.77
2022-10-19T11:22:11.674Z,7.7
2022-10-19T11:25:11.674Z,7.85
2022-10-19T11:28:11.676Z,7.81
2022-10-19T11:31:11.709Z,7.74
2022-10-19T11:34:11.678Z,7.73
2022-10-19T11:37:11.679Z,7.68
2022-10-19T11:40:11.681Z,7.76
2022-10-19T11:43:11.678Z,7.79
2022-10-19T11:46:11.685Z,7.73
2022-10-19T11:49:11.712Z,7.73
2022-10-19T11:52:11.701Z,7.81
2022-10-19T11:55:11.698Z,7.85
2022-10-19T11:58:11.711Z,7.71
2022-10-19T12:01:11.711Z,7.7
2022-10-19T12:04:11.707Z,7.83
2022-10-19T12:07:11.739Z,7.74
2022-10-19T12:10:11.779Z,7.74
2022-10-19T12:13:11.727Z,7.77
2022-10-19T12:16:11.715Z,7.78
2022-10-19T12:19:11.725Z,7.71
2022-10-19T12:22:11.729Z,7.65
2022-10-19T12:25:11.770Z,7.61
2022-10-19T12:28:11.741Z,7.61
2022-10-19T12:31:11.745Z,7.72
2022-10-19T12:34:11.772Z,7.72
2022-10-19T12:37:11.765Z,7.68
2022-10-19T12:40:11.759Z,7.62
2022-10-19T12:43:11.791Z,7.59
2022-10-19T12:46:11.762Z,7.68
2022-10-19T12:49:11.775Z,7.65
2022-10-19T12:52:11.778Z,7.64
2022-10-19T12:55:11.781Z,7.72
2022-10-19T12:58:11.797Z,7.64
2022-10-19T13:01:11.861Z,7.56
2022-10-19T13:04:11.793Z,7.66
2022-10-19T13:07:11.798Z,7.7
2022-10-19T13:10:11.799Z,7.68
2022-10-19T13:13:11.802Z,7.59
2022-10-19T13:16:11.809Z,7.55
2022-10-19T13:19:11.855Z,7.56
2022-10-19T13:22:11.812Z,7.51
2022-10-19T13:25:11.825Z,7.55
2022-10-19T13:28:11.838Z,7.55
2022-10-19T13:31:14.811Z,7.62
2022-10-19T13:34:11.837Z,7.7
2022-10-19T13:37:11.904Z,7.7
2022-10-19T13:40:11.852Z,7.64
2022-10-19T13:43:11.870Z,7.56
2022-10-19T13:46:11.869Z,7.61
2022-10-19T13:49:11.875Z,7.64
2022-10-19T13:52:11.887Z,7.65
2022-10-19T13:55:11.913Z,7.69
2022-10-19T13:58:11.901Z,7.71
2022-10-19T14:01:11.906Z,7.72
2022-10-19T14:04:11.897Z,7.73
2022-10-19T14:07:11.922Z,7.73
2022-10-19T14:10:11.924Z,7.72
2022-10-19T14:13:11.953Z,7.8
2022-10-19T14:16:11.940Z,7.87
2022-10-19T14:19:11.936Z,7.86
2022-10-19T14:22:11.948Z,7.81
2022-10-19T14:25:11.947Z,7.86
2022-10-19T14:28:11.960Z,7.81
2022-10-19T14:31:12.022Z,7.79
2022-10-19T14:34:11.975Z,7.76
2022-10-19T14:37:11.986Z,7.76
2022-10-19T14:40:11.991Z,7.79
2022-10-19T14:43:12.004Z,7.74
2022-10-19T14:46:12.007Z,7.76
2022-10-19T14:49:12.034Z,7.86
2022-10-19T14:52:12.022Z,7.78
2022-10-19T14:55:12.806Z,7.71
2022-10-19T14:58:12.040Z,7.65
2022-10-19T15:01:12.251Z,7.63
2022-10-19T15:04:12.054Z,7.57
2022-10-19T15:07:12.077Z,7.6
2022-10-19T15:10:12.064Z,7.58
2022-10-19T15:13:12.073Z,7.55
2022-10-19T15:16:12.075Z,7.56
2022-10-19T15:19:12.093Z,7.61
2022-10-19T15:22:12.094Z,7.56
2022-10-19T15:25:12.125Z,7.57
2022-10-19T15:31:12.125Z,7.63
2022-10-19T15:34:12.123Z,7.6
2022-10-19T15:37:12.834Z,7.59
2022-10-19T15:40:12.142Z,7.53
2022-10-19T15:43:12.170Z,7.49
2022-10-19T15:46:12.157Z,7.51
2022-10-19T15:49:12.165Z,7.59
2022-10-19T15:52:12.170Z,7.53
2022-10-19T15:55:12.182Z,7.5
2022-10-19T15:58:12.190Z,7.5
2022-10-19T16:01:12.226Z,7.48
2022-10-19T16:04:12.212Z,7.5
2022-10-19T16:07:12.206Z,7.51
2022-10-19T16:10:12.224Z,7.47
2022-10-19T16:13:12.229Z,7.49
2022-10-19T16:16:12.238Z,7.47
2022-10-19T16:19:12.328Z,7.48
2022-10-19T16:22:12.248Z,7.48
2022-10-19T16:25:12.255Z,7.43
2022-10-19T16:28:12.265Z,7.45
2022-10-19T16:31:12.266Z,7.44
2022-10-19T16:34:12.271Z,7.43
2022-10-19T16:37:12.301Z,7.46
2022-10-19T16:40:12.280Z,7.47
2022-10-19T16:43:12.286Z,7.5
2022-10-19T16:46:12.294Z,7.49
2022-10-19T16:49:12.304Z,7.45
2022-10-19T16:52:12.306Z,7.44
2022-10-19T16:55:12.336Z,7.4
2022-10-19T16:58:12.312Z,7.4
2022-10-19T17:01:12.360Z,7.35
2022-10-19T17:04:12.321Z,7.34
2022-10-19T17:07:12.321Z,7.32
2022-10-19T17:10:12.370Z,7.28
2022-10-19T17:13:12.362Z,7.32
2022-10-19T17:16:12.330Z,7.3
2022-10-19T17:19:12.331Z,7.29
2022-10-19T17:22:12.334Z,7.33
2022-10-19T17:25:12.338Z,7.32
2022-10-19T17:28:12.341Z,7.29
2022-10-19T17:31:12.376Z,7.21
2022-10-19T17:34:12.355Z,7.19
2022-10-19T17:37:12.356Z,7.26
2022-10-19T17:40:12.359Z,7.28
2022-10-19T17:43:12.383Z,7.27
2022-10-19T17:46:12.374Z,7.21
2022-10-19T17:49:12.415Z,7.11
2022-10-19T17:52:12.373Z,6.99
2022-10-19T17:55:13.266Z,7.08
2022-10-19T17:58:12.383Z,7.12
2022-10-19T18:01:12.379Z,7.03
2022-10-19T18:04:12.380Z,7.03
2022-10-19T18:07:12.400Z,7.01
2022-10-19T18:10:12.404Z,6.92
2022-10-19T18:13:12.423Z,6.97
2022-10-19T18:16:12.413Z,6.98
2022-10-19T18:19:12.411Z,7.03
2022-10-19T18:22:12.415Z,7.02
2022-10-19T18:25:12.458Z,6.97
2022-10-19T18:28:12.460Z,6.94
2022-10-19T18:31:12.451Z,6.92
2022-10-19T18:34:12.474Z,6.94
2022-10-19T18:37:12.469Z,6.97
2022-10-19T18:40:12.481Z,6.94
2022-10-19T18:43:12.526Z,6.88
2022-10-19T18:46:12.502Z,6.82
2022-10-19T18:49:12.522Z,6.8
2022-10-19T18:52:12.530Z,6.82
2022-10-19T18:55:12.537Z,6.78
2022-10-19T18:58:12.574Z,6.77
2022-10-19T19:01:12.645Z,6.74
2022-10-19T19:04:12.568Z,6.78
2022-10-19T19:07:12.579Z,6.8
2022-10-19T19:10:12.588Z,6.79
2022-10-19T19:13:12.603Z,6.82
2022-10-19T19:16:12.603Z,6.78
2022-10-19T19:19:12.645Z,6.71
2022-10-19T19:22:12.628Z,6.71
2022-10-19T19:25:12.634Z,6.69
2022-10-19T19:28:12.660Z,6.69
2022-10-19T19:31:12.660Z,6.7
2022-10-19T19:34:12.669Z,6.73
2022-10-19T19:37:12.711Z,6.75
2022-10-19T19:40:12.697Z,6.71
2022-10-19T19:43:12.719Z,6.64
2022-10-19T19:46:12.822Z,6.65
2022-10-19T19:49:12.714Z,6.67
2022-10-19T19:52:12.727Z,6.68
2022-10-19T19:55:12.757Z,6.59
2022-10-19T19:58:12.752Z,6.51
2022-10-19T20:01:13.580Z,6.5
2022-10-19T20:04:12.751Z,6.51
2022-10-19T20:07:12.753Z,6.52
2022-10-19T20:10:12.758Z,6.48
2022-10-19T20:13:12.805Z,6.52
2022-10-19T20:16:12.779Z,6.54
2022-10-19T20:19:12.786Z,6.55
2022-10-19T20:22:12.820Z,6.55
2022-10-19T20:25:12.797Z,6.55
2022-10-19T20:28:12.816Z,6.55
2022-10-19T20:31:12.837Z,6.56
2022-10-19T20:34:12.809Z,6.61
2022-10-19T20:37:12.814Z,6.61
2022-10-19T20:40:12.818Z,6.58
2022-10-19T20:43:12.849Z,6.56
2022-10-19T20:46:12.850Z,6.56
2022-10-19T20:49:12.871Z,6.56
2022-10-19T20:52:12.861Z,6.56
2022-10-19T20:55:12.873Z,6.56
2022-10-19T20:58:12.897Z,6.52
2022-10-19T21:01:13.010Z,6.46
2022-10-19T21:04:12.911Z,6.42
2022-10-19T21:07:12.941Z,6.42
2022-10-19T21:10:12.921Z,6.37
2022-10-19T21:13:12.941Z,6.32
2022-10-19T21:16:12.952Z,6.32
2022-10-19T21:19:12.964Z,6.29
2022-10-19T21:22:12.978Z,6.29
2022-10-19T21:25:13.009Z,6.3
2022-10-19T21:28:13.005Z,6.35
2022-10-19T21:31:13.002Z,6.36
2022-10-19T21:34:13.024Z,6.32
2022-10-19T21:37:13.036Z,6.27
2022-10-19T21:40:13.056Z,6.27
2022-10-19T21:43:13.098Z,6.27
2022-10-19T21:46:13.077Z,6.32
2022-10-19T21:49:13.094Z,6.29
2022-10-19T21:52:16.016Z,6.34
2022-10-19T21:55:13.110Z,6.29
2022-10-19T21:58:13.137Z,6.29
2022-10-19T22:01:13.216Z,6.24
2022-10-19T22:04:13.145Z,6.24
2022-10-19T22:07:13.162Z,6.25
2022-10-19T22:10:13.176Z,6.25
2022-10-19T22:13:13.199Z,6.2
2022-10-19T22:16:13.204Z,6.19
2022-10-19T22:19:13.244Z,6.13
2022-10-19T22:22:13.227Z,6.14
2022-10-19T22:25:13.245Z,6.15
2022-10-19T22:28:13.273Z,6.12
2022-10-19T22:31:13.274Z,6.12
2022-10-19T22:34:13.291Z,6.13
2022-10-19T22:37:13.319Z,6.18
2022-10-19T22:40:13.316Z,6.19
2022-10-19T22:43:13.347Z,6.2
2022-10-19T22:46:13.346Z,6.24
2022-10-19T22:49:13.355Z,6.25
2022-10-19T22:52:13.364Z,6.2
2022-10-19T22:55:13.474Z,6.18
2022-10-19T22:58:13.414Z,6.14
2022-10-19T23:01:13.448Z,6.14
2022-10-19T23:04:13.440Z,6.18
2022-10-19T23:07:13.469Z,6.19
2022-10-19T23:10:13.457Z,6.2
2022-10-19T23:13:13.520Z,6.21
2022-10-19T23:16:13.486Z,6.22
2022-10-19T23:19:13.505Z,6.26
2022-10-19T23:22:13.526Z,6.27
2022-10-19T23:25:13.548Z,6.27
2022-10-19T23:28:13.571Z,6.26
2022-10-19T23:31:13.602Z,6.26
2022-10-19T23:34:13.592Z,6.2
2022-10-19T23:37:13.609Z,6.2
2022-10-19T23:40:13.625Z,6.16
2022-10-19T23:43:13.835Z,6.11
2022-10-19T23:46:13.649Z,6.11
2022-10-19T23:49:13.702Z,6.11
2022-10-19T23:52:13.699Z,6.11
2022-10-19T23:55:13.714Z,6.07
2022-10-19T23:58:13.744Z,6.02
